sensor_id;sensor_type;location;lat;lon;timestamp;P1;durP1;ratioP1;P2;durP2;ratioP2
39308;SDS011;26019;47.510;19.122;2023-07-31T00:00:16;3.20;;;2.95;;
39308;SDS011;26019;47.510;19.122;2023-07-31T00:10:18;3.90;;;3.47;;
39308;SDS011;26019;47.510;19.122;2023-07-31T00:20:20;5.53;;;3.45;;
39308;SDS011;26019;47.510;19.122;2023-07-31T00:30:22;4.38;;;3.20;;
39308;SDS011;26019;47.510;19.122;2023-07-31T00:40:26;4.35;;;2.83;;
39308;SDS011;26019;47.510;19.122;2023-07-31T00:50:28;5.25;;;2.67;;
39308;SDS011;26019;47.510;19.122;2023-07-31T01:00:31;3.70;;;3.13;;
39308;SDS011;26019;47.510;19.122;2023-07-31T01:21:26;4.57;;;3.45;;
39308;SDS011;26019;47.510;19.122;2023-07-31T01:31:25;6.32;;;3.47;;
39308;SDS011;26019;47.510;19.122;2023-07-31T01:41:29;6.07;;;4.50;;
39308;SDS011;26019;47.510;19.122;2023-07-31T02:01:38;6.05;;;4.80;;
39308;SDS011;26019;47.510;19.122;2023-07-31T02:11:40;5.53;;;4.63;;
39308;SDS011;26019;47.510;19.122;2023-07-31T02:21:43;6.10;;;5.45;;
39308;SDS011;26019;47.510;19.122;2023-07-31T02:31:44;6.55;;;4.70;;
39308;SDS011;26019;47.510;19.122;2023-07-31T02:51:48;5.50;;;4.07;;
39308;SDS011;26019;47.510;19.122;2023-07-31T03:11:53;7.70;;;3.78;;
39308;SDS011;26019;47.510;19.122;2023-07-31T03:31:56;8.23;;;3.67;;
39308;SDS011;26019;47.510;19.122;2023-07-31T03:51:59;4.95;;;3.10;;
39308;SDS011;26019;47.510;19.122;2023-07-31T04:12:03;5.63;;;2.70;;
39308;SDS011;26019;47.510;19.122;2023-07-31T04:22:05;4.03;;;2.22;;
39308;SDS011;26019;47.510;19.122;2023-07-31T04:42:08;2.83;;;2.30;;
39308;SDS011;26019;47.510;19.122;2023-07-31T05:02:15;2.65;;;2.05;;
39308;SDS011;26019;47.510;19.122;2023-07-31T05:22:22;2.80;;;1.90;;
39308;SDS011;26019;47.510;19.122;2023-07-31T05:32:25;3.03;;;1.67;;
39308;SDS011;26019;47.510;19.122;2023-07-31T05:42:27;2.60;;;2.13;;
39308;SDS011;26019;47.510;19.122;2023-07-31T05:52:29;3.13;;;1.50;;
39308;SDS011;26019;47.510;19.122;2023-07-31T06:02:31;3.35;;;2.25;;
39308;SDS011;26019;47.510;19.122;2023-07-31T06:12:35;2.70;;;2.00;;
39308;SDS011;26019;47.510;19.122;2023-07-31T06:22:50;5.95;;;2.10;;
39308;SDS011;26019;47.510;19.122;2023-07-31T06:32:52;5.57;;;1.95;;
39308;SDS011;26019;47.510;19.122;2023-07-31T06:43:01;3.65;;;2.25;;
39308;SDS011;26019;47.510;19.122;2023-07-31T06:53:10;4.50;;;1.88;;
39308;SDS011;26019;47.510;19.122;2023-07-31T07:03:13;4.55;;;1.63;;
39308;SDS011;26019;47.510;19.122;2023-07-31T07:13:18;5.53;;;1.90;;
39308;SDS011;26019;47.510;19.122;2023-07-31T07:23:20;7.75;;;1.83;;
39308;SDS011;26019;47.510;19.122;2023-07-31T07:33:22;5.50;;;1.92;;
39308;SDS011;26019;47.510;19.122;2023-07-31T07:53:32;3.50;;;1.60;;
39308;SDS011;26019;47.510;19.122;2023-07-31T08:03:34;4.55;;;2.00;;
39308;SDS011;26019;47.510;19.122;2023-07-31T08:13:37;2.25;;;1.60;;
39308;SDS011;26019;47.510;19.122;2023-07-31T08:23:39;3.67;;;1.63;;
39308;SDS011;26019;47.510;19.122;2023-07-31T08:33:41;2.17;;;1.15;;
39308;SDS011;26019;47.510;19.122;2023-07-31T08:43:46;2.75;;;1.60;;
39308;SDS011;26019;47.510;19.122;2023-07-31T08:53:48;3.15;;;1.85;;
39308;SDS011;26019;47.510;19.122;2023-07-31T09:13:57;3.97;;;1.08;;
39308;SDS011;26019;47.510;19.122;2023-07-31T09:24:01;4.68;;;1.40;;
39308;SDS011;26019;47.510;19.122;2023-07-31T09:34:04;6.72;;;1.88;;
39308;SDS011;26019;47.510;19.122;2023-07-31T09:44:06;2.83;;;1.13;;
39308;SDS011;26019;47.510;19.122;2023-07-31T10:04:14;6.18;;;1.38;;
39308;SDS011;26019;47.510;19.122;2023-07-31T10:14:20;5.72;;;1.42;;
39308;SDS011;26019;47.510;19.122;2023-07-31T10:24:24;2.78;;;1.08;;
39308;SDS011;26019;47.510;19.122;2023-07-31T10:34:29;6.68;;;1.15;;
39308;SDS011;26019;47.510;19.122;2023-07-31T10:44:35;13.65;;;2.20;;
39308;SDS011;26019;47.510;19.122;2023-07-31T10:54:40;4.65;;;1.70;;
39308;SDS011;26019;47.510;19.122;2023-07-31T11:04:42;2.50;;;1.13;;
39308;SDS011;26019;47.510;19.122;2023-07-31T11:14:45;1.42;;;1.13;;
39308;SDS011;26019;47.510;19.122;2023-07-31T11:24:57;2.47;;;1.40;;
39308;SDS011;26019;47.510;19.122;2023-07-31T11:35:02;2.08;;;1.00;;
39308;SDS011;26019;47.510;19.122;2023-07-31T11:45:08;1.58;;;1.13;;
39308;SDS011;26019;47.510;19.122;2023-07-31T11:55:11;2.03;;;0.75;;
39308;SDS011;26019;47.510;19.122;2023-07-31T12:05:14;3.35;;;1.13;;
39308;SDS011;26019;47.510;19.122;2023-07-31T12:15:16;1.80;;;0.90;;
39308;SDS011;26019;47.510;19.122;2023-07-31T12:25:18;4.22;;;0.98;;
39308;SDS011;26019;47.510;19.122;2023-07-31T12:35:20;3.70;;;1.35;;
39308;SDS011;26019;47.510;19.122;2023-07-31T12:45:22;4.78;;;1.20;;
39308;SDS011;26019;47.510;19.122;2023-07-31T12:55:28;3.10;;;1.40;;
39308;SDS011;26019;47.510;19.122;2023-07-31T13:05:30;5.78;;;1.13;;
39308;SDS011;26019;47.510;19.122;2023-07-31T13:15:35;3.72;;;1.25;;
39308;SDS011;26019;47.510;19.122;2023-07-31T13:25:37;1.80;;;1.20;;
39308;SDS011;26019;47.510;19.122;2023-07-31T13:35:39;3.67;;;1.40;;
39308;SDS011;26019;47.510;19.122;2023-07-31T13:45:40;3.83;;;1.10;;
39308;SDS011;26019;47.510;19.122;2023-07-31T13:55:43;3.70;;;2.08;;
39308;SDS011;26019;47.510;19.122;2023-07-31T14:05:48;3.42;;;1.20;;
39308;SDS011;26019;47.510;19.122;2023-07-31T14:25:58;1.83;;;1.33;;
39308;SDS011;26019;47.510;19.122;2023-07-31T14:36:01;2.97;;;1.33;;
39308;SDS011;26019;47.510;19.122;2023-07-31T14:46:04;3.10;;;1.55;;
39308;SDS011;26019;47.510;19.122;2023-07-31T14:56:06;2.70;;;1.00;;
39308;SDS011;26019;47.510;19.122;2023-07-31T15:06:10;3.83;;;2.08;;
39308;SDS011;26019;47.510;19.122;2023-07-31T15:16:16;2.80;;;0.93;;
39308;SDS011;26019;47.510;19.122;2023-07-31T15:26:22;2.30;;;1.45;;
39308;SDS011;26019;47.510;19.122;2023-07-31T15:36:23;4.20;;;1.55;;
39308;SDS011;26019;47.510;19.122;2023-07-31T15:46:29;3.95;;;0.95;;
39308;SDS011;26019;47.510;19.122;2023-07-31T15:56:31;2.83;;;1.27;;
39308;SDS011;26019;47.510;19.122;2023-07-31T16:06:33;1.70;;;1.25;;
39308;SDS011;26019;47.510;19.122;2023-07-31T16:16:38;3.05;;;1.23;;
39308;SDS011;26019;47.510;19.122;2023-07-31T16:26:40;2.55;;;0.90;;
39308;SDS011;26019;47.510;19.122;2023-07-31T16:36:43;3.97;;;2.17;;
39308;SDS011;26019;47.510;19.122;2023-07-31T16:46:45;3.25;;;1.60;;
39308;SDS011;26019;47.510;19.122;2023-07-31T16:56:47;30.85;;;4.10;;
39308;SDS011;26019;47.510;19.122;2023-07-31T17:07:00;6.90;;;1.42;;
39308;SDS011;26019;47.510;19.122;2023-07-31T17:17:02;2.47;;;1.40;;
39308;SDS011;26019;47.510;19.122;2023-07-31T17:27:04;7.97;;;1.30;;
39308;SDS011;26019;47.510;19.122;2023-07-31T17:37:08;2.83;;;1.10;;
39308;SDS011;26019;47.510;19.122;2023-07-31T17:47:10;3.55;;;1.35;;
39308;SDS011;26019;47.510;19.122;2023-07-31T17:57:13;1.95;;;1.13;;
39308;SDS011;26019;47.510;19.122;2023-07-31T18:07:15;3.80;;;1.20;;
39308;SDS011;26019;47.510;19.122;2023-07-31T18:17:18;3.72;;;1.38;;
39308;SDS011;26019;47.510;19.122;2023-07-31T18:27:22;6.30;;;1.63;;
39308;SDS011;26019;47.510;19.122;2023-07-31T18:37:25;4.43;;;1.52;;
39308;SDS011;26019;47.510;19.122;2023-07-31T18:47:28;7.45;;;2.75;;
39308;SDS011;26019;47.510;19.122;2023-07-31T18:57:31;2.83;;;1.50;;
39308;SDS011;26019;47.510;19.122;2023-07-31T19:07:34;7.70;;;1.75;;
39308;SDS011;26019;47.510;19.122;2023-07-31T19:17:38;11.77;;;2.92;;
39308;SDS011;26019;47.510;19.122;2023-07-31T19:27:43;6.20;;;2.70;;
39308;SDS011;26019;47.510;19.122;2023-07-31T19:37:54;3.65;;;1.67;;
39308;SDS011;26019;47.510;19.122;2023-07-31T19:47:56;6.30;;;2.10;;
39308;SDS011;26019;47.510;19.122;2023-07-31T19:57:59;4.60;;;2.67;;
39308;SDS011;26019;47.510;19.122;2023-07-31T20:08:01;5.85;;;3.10;;
39308;SDS011;26019;47.510;19.122;2023-07-31T20:18:03;3.97;;;2.55;;
39308;SDS011;26019;47.510;19.122;2023-07-31T20:28:05;14.05;;;2.97;;
39308;SDS011;26019;47.510;19.122;2023-07-31T20:38:07;7.82;;;2.35;;
39308;SDS011;26019;47.510;19.122;2023-07-31T20:48:10;5.60;;;2.80;;
39308;SDS011;26019;47.510;19.122;2023-07-31T20:58:14;6.75;;;2.40;;
39308;SDS011;26019;47.510;19.122;2023-07-31T21:08:16;5.35;;;2.58;;
39308;SDS011;26019;47.510;19.122;2023-07-31T21:18:18;8.35;;;2.85;;
39308;SDS011;26019;47.510;19.122;2023-07-31T21:28:21;6.40;;;2.83;;
39308;SDS011;26019;47.510;19.122;2023-07-31T21:38:23;6.30;;;2.78;;
39308;SDS011;26019;47.510;19.122;2023-07-31T21:48:33;6.05;;;3.20;;
39308;SDS011;26019;47.510;19.122;2023-07-31T21:58:36;5.65;;;3.10;;
39308;SDS011;26019;47.510;19.122;2023-07-31T22:08:38;6.00;;;2.55;;
39308;SDS011;26019;47.510;19.122;2023-07-31T22:28:42;6.13;;;3.47;;
39308;SDS011;26019;47.510;19.122;2023-07-31T22:48:45;11.25;;;2.83;;
39308;SDS011;26019;47.510;19.122;2023-07-31T22:58:48;3.88;;;2.85;;
39308;SDS011;26019;47.510;19.122;2023-07-31T23:08:50;10.80;;;2.63;;
39308;SDS011;26019;47.510;19.122;2023-07-31T23:18:53;6.47;;;2.58;;
39308;SDS011;26019;47.510;19.122;2023-07-31T23:28:57;7.63;;;2.75;;
39308;SDS011;26019;47.510;19.122;2023-07-31T23:39:01;6.00;;;3.20;;
39308;SDS011;26019;47.510;19.122;2023-07-31T23:49:03;8.82;;;2.88;;
39308;SDS011;26019;47.510;19.122;2023-07-31T23:59:05;9.75;;;3.65;;
